sensor_id;sensor_type;location;lat;lon;timestamp;pressure;altitude;pressure_sealevel;temperature;humidity
77216;BME280;66210;53.282;9.864;2024-03-17T00:01:00;101705.75;;;1.36;100.00
77216;BME280;66210;53.282;9.864;2024-03-17T00:03:26;101701.75;;;1.30;100.00
77216;BME280;66210;53.282;9.864;2024-03-17T00:05:59;101700.16;;;1.30;100.00
77216;BME280;66210;53.282;9.864;2024-03-17T00:08:25;101707.53;;;1.29;100.00
77216;BME280;66210;53.282;9.864;2024-03-17T00:10:51;101703.22;;;1.28;100.00
77216;BME280;66210;53.282;9.864;2024-03-17T00:13:17;101694.97;;;1.20;100.00
77216;BME280;66210;53.282;9.864;2024-03-17T00:15:43;101699.09;;;1.19;100.00
77216;BME280;66210;53.282;9.864;2024-03-17T00:18:12;101722.22;;;1.25;100.00
77216;BME280;66210;53.282;9.864;2024-03-17T00:20:38;101715.88;;;1.20;100.00
77216;BME280;66210;53.282;9.864;2024-03-17T00:23:04;101720.00;;;1.20;100.00
77216;BME280;66210;53.282;9.864;2024-03-17T00:25:35;101719.59;;;1.24;100.00
77216;BME280;66210;53.282;9.864;2024-03-17T00:28:01;101712.66;;;1.21;100.00
77216;BME280;66210;53.282;9.864;2024-03-17T00:30:27;101715.00;;;1.20;100.00
77216;BME280;66210;53.282;9.864;2024-03-17T00:32:53;101712.66;;;1.21;100.00
77216;BME280;66210;53.282;9.864;2024-03-17T00:35:19;101713.81;;;1.25;100.00
77216;BME280;66210;53.282;9.864;2024-03-17T00:37:48;101712.19;;;1.25;100.00
77216;BME280;66210;53.282;9.864;2024-03-17T00:40:15;101710.59;;;1.26;100.00
77216;BME280;66210;53.282;9.864;2024-03-17T00:42:42;101719.00;;;1.27;100.00
77216;BME280;66210;53.282;9.864;2024-03-17T00:45:08;101712.19;;;1.25;100.00
77216;BME280;66210;53.282;9.864;2024-03-17T00:47:36;101714.56;;;1.24;100.00
77216;BME280;66210;53.282;9.864;2024-03-17T00:50:02;101723.13;;;1.26;100.00
77216;BME280;66210;53.282;9.864;2024-03-17T00:52:29;101727.97;;;1.24;100.00
77216;BME280;66210;53.282;9.864;2024-03-17T00:54:55;101727.81;;;1.23;100.00
77216;BME280;66210;53.282;9.864;2024-03-17T00:57:21;101715.59;;;1.17;100.00
77216;BME280;66210;53.282;9.864;2024-03-17T00:59:46;101728.25;;;1.19;100.00
77216;BME280;66210;53.282;9.864;2024-03-17T01:02:13;101727.78;;;1.14;100.00
77216;BME280;66210;53.282;9.864;2024-03-17T01:04:40;101728.53;;;1.13;100.00
77216;BME280;66210;53.282;9.864;2024-03-17T01:07:06;101721.59;;;1.11;100.00
77216;BME280;66210;53.282;9.864;2024-03-17T01:09:31;101716.84;;;1.05;100.00
77216;BME280;66210;53.282;9.864;2024-03-17T01:11:57;101728.22;;;1.10;100.00
77216;BME280;66210;53.282;9.864;2024-03-17T01:14:23;101729.81;;;1.10;100.00
77216;BME280;66210;53.282;9.864;2024-03-17T01:16:51;101722.31;;;1.10;100.00
77216;BME280;66210;53.282;9.864;2024-03-17T01:19:16;101710.97;;;1.04;100.00
77216;BME280;66210;53.282;9.864;2024-03-17T01:21:42;101717.44;;;1.02;100.00
77216;BME280;66210;53.282;9.864;2024-03-17T01:24:08;101717.16;;;0.99;100.00
77216;BME280;66210;53.282;9.864;2024-03-17T01:26:34;101721.56;;;1.02;100.00
77216;BME280;66210;53.282;9.864;2024-03-17T01:28:59;101722.75;;;0.97;100.00
77216;BME280;66210;53.282;9.864;2024-03-17T01:31:25;101722.41;;;0.94;100.00
77216;BME280;66210;53.282;9.864;2024-03-17T01:33:51;101730.09;;;0.95;100.00
77216;BME280;66210;53.282;9.864;2024-03-17T01:36:16;101729.91;;;0.94;100.00
77216;BME280;66210;53.282;9.864;2024-03-17T01:38:42;101713.09;;;0.84;100.00
77216;BME280;66210;53.282;9.864;2024-03-17T01:41:08;101716.66;;;0.86;100.00
77216;BME280;66210;53.282;9.864;2024-03-17T01:43:36;101711.91;;;0.80;100.00
77216;BME280;66210;53.282;9.864;2024-03-17T01:46:02;101733.00;;;0.91;100.00
77216;BME280;66210;53.282;9.864;2024-03-17T01:48:28;101724.16;;;0.86;100.00
77216;BME280;66210;53.282;9.864;2024-03-17T01:50:55;101726.66;;;0.86;100.00
77216;BME280;66210;53.282;9.864;2024-03-17T01:53:22;101729.56;;;0.82;100.00
77216;BME280;66210;53.282;9.864;2024-03-17T01:55:51;101713.38;;;0.78;100.00
77216;BME280;66210;53.282;9.864;2024-03-17T01:58:20;101727.81;;;0.81;100.00
77216;BME280;66210;53.282;9.864;2024-03-17T02:00:46;101720.72;;;0.77;100.00
77216;BME280;66210;53.282;9.864;2024-03-17T02:03:12;101715.56;;;0.75;100.00
77216;BME280;66210;53.282;9.864;2024-03-17T02:05:38;101716.44;;;0.76;100.00
77216;BME280;66210;53.282;9.864;2024-03-17T02:08:05;101713.81;;;0.74;100.00
77216;BME280;66210;53.282;9.864;2024-03-17T02:10:33;101720.72;;;0.77;100.00
77216;BME280;66210;53.282;9.864;2024-03-17T02:12:59;101713.47;;;0.71;100.00
77216;BME280;66210;53.282;9.864;2024-03-17T02:15:25;101711.56;;;0.69;100.00
77216;BME280;66210;53.282;9.864;2024-03-17T02:17:51;101723.50;;;0.71;100.00
77216;BME280;66210;53.282;9.864;2024-03-17T02:20:17;101714.66;;;0.66;100.00
77216;BME280;66210;53.282;9.864;2024-03-17T02:22:43;101712.88;;;0.65;100.00
77216;BME280;66210;53.282;9.864;2024-03-17T02:25:09;101717.16;;;0.66;100.00
77216;BME280;66210;53.282;9.864;2024-03-17T02:27:35;101711.69;;;0.61;100.00
77216;BME280;66210;53.282;9.864;2024-03-17T02:30:04;101712.97;;;0.58;100.00
77216;BME280;66210;53.282;9.864;2024-03-17T02:32:37;101713.88;;;0.58;100.00
77216;BME280;66210;53.282;9.864;2024-03-17T02:35:03;101717.69;;;0.55;100.00
77216;BME280;66210;53.282;9.864;2024-03-17T02:37:30;101718.09;;;0.51;100.00
77216;BME280;66210;53.282;9.864;2024-03-17T02:39:56;101717.03;;;0.49;100.00
77216;BME280;66210;53.282;9.864;2024-03-17T02:42:22;101708.50;;;0.47;100.00
77216;BME280;66210;53.282;9.864;2024-03-17T02:44:47;101708.50;;;0.47;100.00
77216;BME280;66210;53.282;9.864;2024-03-17T02:47:13;101703.03;;;0.42;100.00
77216;BME280;66210;53.282;9.864;2024-03-17T02:49:40;101718.50;;;0.47;100.00
77216;BME280;66210;53.282;9.864;2024-03-17T02:52:09;101714.66;;;0.41;100.00
77216;BME280;66210;53.282;9.864;2024-03-17T02:54:36;101725.41;;;0.40;100.00
77216;BME280;66210;53.282;9.864;2024-03-17T02:57:03;101723.41;;;0.29;100.00
77216;BME280;66210;53.282;9.864;2024-03-17T02:59:28;101717.59;;;0.22;100.00
77216;BME280;66210;53.282;9.864;2024-03-17T03:01:54;101729.22;;;0.21;100.00
77216;BME280;66210;53.282;9.864;2024-03-17T03:04:20;101724.34;;;0.14;100.00
77216;BME280;66210;53.282;9.864;2024-03-17T03:06:46;101725.44;;;0.09;100.00
77216;BME280;66210;53.282;9.864;2024-03-17T03:09:11;101726.59;;;0.04;100.00
77216;BME280;66210;53.282;9.864;2024-03-17T03:11:46;101730.53;;;0.02;100.00
77216;BME280;66210;53.282;9.864;2024-03-17T03:14:12;101729.09;;;0.04;100.00
77216;BME280;66210;53.282;9.864;2024-03-17T03:16:38;101733.91;;;0.02;100.00
77216;BME280;66210;53.282;9.864;2024-03-17T03:19:04;101730.53;;;0.02;100.00
77216;BME280;66210;53.282;9.864;2024-03-17T03:21:31;101718.78;;;0.01;100.00
77216;BME280;66210;53.282;9.864;2024-03-17T03:23:56;101720.25;;;-0.02;100.00
77216;BME280;66210;53.282;9.864;2024-03-17T03:26:22;101728.63;;;-0.01;100.00
77216;BME280;66210;53.282;9.864;2024-03-17T03:28:49;101736.28;;;0.01;100.00
77216;BME280;66210;53.282;9.864;2024-03-17T03:31:15;101733.63;;;-0.01;100.00
77216;BME280;66210;53.282;9.864;2024-03-17T03:33:41;101736.50;;;-0.05;100.00
77216;BME280;66210;53.282;9.864;2024-03-17T03:36:16;101730.63;;;-0.06;100.00
77216;BME280;66210;53.282;9.864;2024-03-17T03:38:44;101727.97;;;-0.07;100.00
77216;BME280;66210;53.282;9.864;2024-03-17T03:41:13;101738.13;;;-0.06;100.00
77216;BME280;66210;53.282;9.864;2024-03-17T03:43:39;101735.00;;;-0.12;100.00
77216;BME280;66210;53.282;9.864;2024-03-17T03:46:07;101731.88;;;-0.18;100.00
77216;BME280;66210;53.282;9.864;2024-03-17T03:48:34;101727.59;;;-0.19;100.00
77216;BME280;66210;53.282;9.864;2024-03-17T03:51:07;101729.03;;;-0.21;100.00
77216;BME280;66210;53.282;9.864;2024-03-17T03:53:33;101732.97;;;-0.23;100.00
77216;BME280;66210;53.282;9.864;2024-03-17T03:55:59;101728.94;;;-0.30;100.00
77216;BME280;66210;53.282;9.864;2024-03-17T03:58:29;101737.66;;;-0.26;100.00
77216;BME280;66210;53.282;9.864;2024-03-17T04:00:55;101739.28;;;-0.27;100.00
77216;BME280;66210;53.282;9.864;2024-03-17T04:03:21;101745.72;;;-0.29;100.00
77216;BME280;66210;53.282;9.864;2024-03-17T04:05:48;101740.56;;;-0.30;100.00
77216;BME280;66210;53.282;9.864;2024-03-17T04:08:13;101737.00;;;-0.32;100.00
77216;BME280;66210;53.282;9.864;2024-03-17T04:10:39;101751.59;;;-0.28;100.00
77216;BME280;66210;53.282;9.864;2024-03-17T04:13:05;101748.78;;;-0.31;100.00
77216;BME280;66210;53.282;9.864;2024-03-17T04:15:30;101739.19;;;-0.35;100.00
77216;BME280;66210;53.282;9.864;2024-03-17T04:17:56;101755.38;;;-0.32;100.00
77216;BME280;66210;53.282;9.864;2024-03-17T04:20:22;101740.66;;;-0.37;100.00
77216;BME280;66210;53.282;9.864;2024-03-17T04:22:47;101739.78;;;-0.38;100.00
77216;BME280;66210;53.282;9.864;2024-03-17T04:25:14;101737.28;;;-0.38;100.00
77216;BME280;66210;53.282;9.864;2024-03-17T04:27:40;101747.00;;;-0.32;100.00
77216;BME280;66210;53.282;9.864;2024-03-17T04:30:06;101741.31;;;-0.31;100.00
77216;BME280;66210;53.282;9.864;2024-03-17T04:32:32;101744.59;;;-0.24;100.00
77216;BME280;66210;53.282;9.864;2024-03-17T04:34:59;101744.59;;;-0.24;100.00
77216;BME280;66210;53.282;9.864;2024-03-17T04:37:25;101746.34;;;-0.23;100.00
77216;BME280;66210;53.282;9.864;2024-03-17T04:39:50;101752.34;;;-0.13;100.00
77216;BME280;66210;53.282;9.864;2024-03-17T04:42:17;101756.28;;;-0.15;100.00
77216;BME280;66210;53.282;9.864;2024-03-17T04:44:45;101751.28;;;-0.15;100.00
77216;BME280;66210;53.282;9.864;2024-03-17T04:47:11;101742.97;;;-0.23;100.00
77216;BME280;66210;53.282;9.864;2024-03-17T04:49:37;101763.19;;;-0.13;100.00
77216;BME280;66210;53.282;9.864;2024-03-17T04:52:03;101757.00;;;-0.16;100.00
77216;BME280;66210;53.282;9.864;2024-03-17T04:54:31;101769.06;;;-0.12;100.00
77216;BME280;66210;53.282;9.864;2024-03-17T04:56:57;101766.19;;;-0.08;100.00
77216;BME280;66210;53.282;9.864;2024-03-17T04:59:23;101771.19;;;-0.08;100.00
77216;BME280;66210;53.282;9.864;2024-03-17T05:01:49;101777.94;;;-0.07;100.00
77216;BME280;66210;53.282;9.864;2024-03-17T05:04:15;101770.69;;;-0.13;100.00
77216;BME280;66210;53.282;9.864;2024-03-17T05:06:41;101771.66;;;-0.19;100.00
77216;BME280;66210;53.282;9.864;2024-03-17T05:09:14;101784.84;;;-0.21;100.00
77216;BME280;66210;53.282;9.864;2024-03-17T05:11:40;101773.19;;;-0.29;100.00
77216;BME280;66210;53.282;9.864;2024-03-17T05:14:07;101787.22;;;-0.22;100.00
77216;BME280;66210;53.282;9.864;2024-03-17T05:16:33;101789.22;;;-0.27;100.00
77216;BME280;66210;53.282;9.864;2024-03-17T05:18:59;101788.31;;;-0.27;100.00
77216;BME280;66210;53.282;9.864;2024-03-17T05:21:25;101780.69;;;-0.29;100.00
77216;BME280;66210;53.282;9.864;2024-03-17T05:23:51;101793.66;;;-0.24;100.00
77216;BME280;66210;53.282;9.864;2024-03-17T05:26:17;101802.91;;;-0.23;100.00
77216;BME280;66210;53.282;9.864;2024-03-17T05:28:43;101793.09;;;-0.22;100.00
77216;BME280;66210;53.282;9.864;2024-03-17T05:31:10;101793.97;;;-0.21;100.00
77216;BME280;66210;53.282;9.864;2024-03-17T05:33:35;101794.13;;;-0.19;100.00
77216;BME280;66210;53.282;9.864;2024-03-17T05:36:02;101801.81;;;-0.18;100.00
77216;BME280;66210;53.282;9.864;2024-03-17T05:38:30;101801.81;;;-0.18;100.00
77216;BME280;66210;53.282;9.864;2024-03-17T05:41:00;101804.63;;;-0.15;100.00
77216;BME280;66210;53.282;9.864;2024-03-17T05:43:28;101806.38;;;-0.14;100.00
77216;BME280;66210;53.282;9.864;2024-03-17T05:45:56;101813.47;;;-0.10;100.00
77216;BME280;66210;53.282;9.864;2024-03-17T05:48:22;101810.41;;;-0.07;100.00
77216;BME280;66210;53.282;9.864;2024-03-17T05:50:50;101796.56;;;-0.12;100.00
77216;BME280;66210;53.282;9.864;2024-03-17T05:53:19;101804.69;;;-0.06;100.00
77216;BME280;66210;53.282;9.864;2024-03-17T05:55:45;101802.34;;;-0.05;100.00
77216;BME280;66210;53.282;9.864;2024-03-17T05:58:11;101783.00;;;-0.14;100.00
77216;BME280;66210;53.282;9.864;2024-03-17T06:00:40;101803.56;;;-0.01;100.00
77216;BME280;66210;53.282;9.864;2024-03-17T06:03:07;101803.56;;;-0.01;100.00
77216;BME280;66210;53.282;9.864;2024-03-17T06:05:35;101806.22;;;0.01;100.00
77216;BME280;66210;53.282;9.864;2024-03-17T06:08:02;101810.09;;;0.06;100.00
77216;BME280;66210;53.282;9.864;2024-03-17T06:10:29;101809.22;;;0.05;100.00
77216;BME280;66210;53.282;9.864;2024-03-17T06:12:56;101818.47;;;0.06;100.00
77216;BME280;66210;53.282;9.864;2024-03-17T06:15:23;101812.03;;;0.08;100.00
77216;BME280;66210;53.282;9.864;2024-03-17T06:17:49;101806.31;;;0.09;100.00
77216;BME280;66210;53.282;9.864;2024-03-17T06:20:24;101804.94;;;0.04;100.00
77216;BME280;66210;53.282;9.864;2024-03-17T06:22:55;101814.13;;;0.12;100.00
77216;BME280;66210;53.282;9.864;2024-03-17T06:25:21;101813.84;;;0.18;100.00
77216;BME280;66210;53.282;9.864;2024-03-17T06:27:50;101813.63;;;0.24;100.00
77216;BME280;66210;53.282;9.864;2024-03-17T06:30:17;101810.56;;;0.26;100.00
77216;BME280;66210;53.282;9.864;2024-03-17T06:32:44;101818.88;;;0.34;100.00
77216;BME280;66210;53.282;9.864;2024-03-17T06:35:11;101821.09;;;0.39;100.00
77216;BME280;66210;53.282;9.864;2024-03-17T06:37:37;101813.59;;;0.39;100.00
77216;BME280;66210;53.282;9.864;2024-03-17T06:40:04;101828.38;;;0.45;100.00
77216;BME280;66210;53.282;9.864;2024-03-17T06:42:31;101823.03;;;0.42;100.00
77216;BME280;66210;53.282;9.864;2024-03-17T06:44:57;101823.59;;;0.39;100.00
77216;BME280;66210;53.282;9.864;2024-03-17T06:47:23;101822.16;;;0.41;100.00
77216;BME280;66210;53.282;9.864;2024-03-17T06:49:49;101819.81;;;0.43;100.00
77216;BME280;66210;53.282;9.864;2024-03-17T06:52:14;101827.47;;;0.45;100.00
77216;BME280;66210;53.282;9.864;2024-03-17T06:54:40;101833.38;;;0.45;100.00
77216;BME280;66210;53.282;9.864;2024-03-17T06:57:05;101835.13;;;0.46;100.00
77216;BME280;66210;53.282;9.864;2024-03-17T06:59:34;101835.13;;;0.46;100.00
77216;BME280;66210;53.282;9.864;2024-03-17T07:02:00;101833.50;;;0.47;100.00
77216;BME280;66210;53.282;9.864;2024-03-17T07:04:26;101840.78;;;0.52;100.00
77216;BME280;66210;53.282;9.864;2024-03-17T07:06:52;101841.41;;;0.58;100.00
77216;BME280;66210;53.282;9.864;2024-03-17T07:09:18;101842.19;;;0.66;100.00
77216;BME280;66210;53.282;9.864;2024-03-17T07:11:43;101841.50;;;0.76;100.00
77216;BME280;66210;53.282;9.864;2024-03-17T07:14:10;101840.22;;;0.79;100.00
77216;BME280;66210;53.282;9.864;2024-03-17T07:16:36;101844.47;;;0.80;100.00
77216;BME280;66210;53.282;9.864;2024-03-17T07:19:02;101843.03;;;0.82;100.00
77216;BME280;66210;53.282;9.864;2024-03-17T07:21:28;101841.44;;;0.83;100.00
77216;BME280;66210;53.282;9.864;2024-03-17T07:23:54;101842.44;;;0.85;100.00
77216;BME280;66210;53.282;9.864;2024-03-17T07:26:19;101820.50;;;0.82;100.00
77216;BME280;66210;53.282;9.864;2024-03-17T07:28:45;101818.94;;;0.92;100.00
77216;BME280;66210;53.282;9.864;2024-03-17T07:31:10;101837.16;;;1.07;100.00
77216;BME280;66210;53.282;9.864;2024-03-17T07:33:37;101840.41;;;1.14;100.00
77216;BME280;66210;53.282;9.864;2024-03-17T07:36:03;101830.41;;;1.14;100.00
77216;BME280;66210;53.282;9.864;2024-03-17T07:38:30;101838.25;;;1.17;100.00
77216;BME280;66210;53.282;9.864;2024-03-17T07:41:03;101837.19;;;1.15;100.00
77216;BME280;66210;53.282;9.864;2024-03-17T07:43:31;101843.53;;;1.20;100.00
77216;BME280;66210;53.282;9.864;2024-03-17T07:46:01;101839.88;;;1.25;100.00
77216;BME280;66210;53.282;9.864;2024-03-17T07:48:27;101847.88;;;1.39;100.00
77216;BME280;66210;53.282;9.864;2024-03-17T07:50:58;101837.63;;;1.44;100.00
77216;BME280;66210;53.282;9.864;2024-03-17T07:53:24;101840.88;;;1.52;100.00
77216;BME280;66210;53.282;9.864;2024-03-17T07:56:00;101831.47;;;1.58;100.00
77216;BME280;66210;53.282;9.864;2024-03-17T07:58:27;101837.38;;;1.67;100.00
77216;BME280;66210;53.282;9.864;2024-03-17T08:00:57;101839.91;;;1.67;100.00
77216;BME280;66210;53.282;9.864;2024-03-17T08:03:26;101842.69;;;1.62;100.00
77216;BME280;66210;53.282;9.864;2024-03-17T08:05:52;101845.03;;;1.60;100.00
77216;BME280;66210;53.282;9.864;2024-03-17T08:08:19;101832.94;;;1.56;100.00
77216;BME280;66210;53.282;9.864;2024-03-17T08:10:45;101841.53;;;1.67;100.00
77216;BME280;66210;53.282;9.864;2024-03-17T08:13:17;101850.09;;;1.78;100.00
77216;BME280;66210;53.282;9.864;2024-03-17T08:15:55;101856.44;;;1.83;100.00
77216;BME280;66210;53.282;9.864;2024-03-17T08:18:21;101846.72;;;1.86;100.00
77216;BME280;66210;53.282;9.864;2024-03-17T08:20:47;101848.06;;;1.91;100.00
77216;BME280;66210;53.282;9.864;2024-03-17T08:23:13;101847.66;;;1.95;100.00
77216;BME280;66210;53.282;9.864;2024-03-17T08:25:41;101838.94;;;2.00;100.00
77216;BME280;66210;53.282;9.864;2024-03-17T08:28:06;101851.06;;;2.13;100.00
77216;BME280;66210;53.282;9.864;2024-03-17T08:30:35;101842.38;;;2.18;100.00
77216;BME280;66210;53.282;9.864;2024-03-17T08:33:01;101841.78;;;2.21;100.00
77216;BME280;66210;53.282;9.864;2024-03-17T08:35:27;101849.47;;;2.31;100.00
77216;BME280;66210;53.282;9.864;2024-03-17T08:37:53;101846.22;;;2.41;100.00
77216;BME280;66210;53.282;9.864;2024-03-17T08:40:23;101846.66;;;2.54;100.00
77216;BME280;66210;53.282;9.864;2024-03-17T08:42:49;101837.06;;;2.59;100.00
77216;BME280;66210;53.282;9.864;2024-03-17T08:45:15;101841.47;;;2.70;100.00
77216;BME280;66210;53.282;9.864;2024-03-17T08:47:42;101836.88;;;2.83;100.00
77216;BME280;66210;53.282;9.864;2024-03-17T08:50:08;101834.59;;;3.04;100.00
77216;BME280;66210;53.282;9.864;2024-03-17T08:52:36;101838.56;;;3.19;100.00
77216;BME280;66210;53.282;9.864;2024-03-17T08:55:01;101828.28;;;3.35;100.00
77216;BME280;66210;53.282;9.864;2024-03-17T08:57:35;101825.81;;;3.54;100.00
77216;BME280;66210;53.282;9.864;2024-03-17T09:00:01;101828.25;;;3.71;100.00
77216;BME280;66210;53.282;9.864;2024-03-17T09:02:27;101828.88;;;3.88;100.00
77216;BME280;66210;53.282;9.864;2024-03-17T09:04:52;101822.63;;;4.02;100.00
77216;BME280;66210;53.282;9.864;2024-03-17T09:07:18;101832.41;;;4.18;100.00
77216;BME280;66210;53.282;9.864;2024-03-17T09:09:46;101807.91;;;4.25;100.00
77216;BME280;66210;53.282;9.864;2024-03-17T09:12:12;101816.59;;;4.48;100.00
77216;BME280;66210;53.282;9.864;2024-03-17T09:14:38;101821.63;;;4.67;100.00
77216;BME280;66210;53.282;9.864;2024-03-17T09:17:03;101817.63;;;4.79;100.00
77216;BME280;66210;53.282;9.864;2024-03-17T09:19:29;101815.28;;;4.91;100.00
77216;BME280;66210;53.282;9.864;2024-03-17T09:21:55;101819.34;;;4.99;97.72
77216;BME280;66210;53.282;9.864;2024-03-17T09:24:21;101817.13;;;5.12;94.36
77216;BME280;66210;53.282;9.864;2024-03-17T09:26:46;101818.69;;;5.20;92.18
77216;BME280;66210;53.282;9.864;2024-03-17T09:29:13;101816.31;;;5.32;90.23
77216;BME280;66210;53.282;9.864;2024-03-17T09:31:41;101826.53;;;5.44;85.98
77216;BME280;66210;53.282;9.864;2024-03-17T09:34:07;101823.66;;;5.50;87.93
77216;BME280;66210;53.282;9.864;2024-03-17T09:36:33;101824.41;;;5.59;85.47
77216;BME280;66210;53.282;9.864;2024-03-17T09:38:59;101828.06;;;5.62;85.27
77216;BME280;66210;53.282;9.864;2024-03-17T09:41:26;101827.06;;;5.71;84.73
77216;BME280;66210;53.282;9.864;2024-03-17T09:43:53;101831.84;;;5.78;83.01
77216;BME280;66210;53.282;9.864;2024-03-17T09:46:19;101833.00;;;5.81;85.03
77216;BME280;66210;53.282;9.864;2024-03-17T09:48:46;101838.94;;;5.92;83.89
77216;BME280;66210;53.282;9.864;2024-03-17T09:51:18;101841.47;;;6.02;83.60
77216;BME280;66210;53.282;9.864;2024-03-17T09:53:44;101835.94;;;6.07;80.71
77216;BME280;66210;53.282;9.864;2024-03-17T09:56:15;101839.06;;;6.24;76.32
77216;BME280;66210;53.282;9.864;2024-03-17T09:58:42;101831.00;;;6.29;73.83
77216;BME280;66210;53.282;9.864;2024-03-17T10:01:08;101837.00;;;6.41;76.35
77216;BME280;66210;53.282;9.864;2024-03-17T10:03:47;101840.16;;;6.49;73.54
77216;BME280;66210;53.282;9.864;2024-03-17T10:06:25;101839.66;;;6.53;72.10
77216;BME280;66210;53.282;9.864;2024-03-17T10:08:58;101844.44;;;6.60;74.61
77216;BME280;66210;53.282;9.864;2024-03-17T10:11:32;101839.50;;;6.61;74.70
77216;BME280;66210;53.282;9.864;2024-03-17T10:14:00;101839.75;;;6.64;76.64
77216;BME280;66210;53.282;9.864;2024-03-17T10:16:27;101843.88;;;6.74;76.50
77216;BME280;66210;53.282;9.864;2024-03-17T10:19:15;101840.81;;;6.78;76.48
77216;BME280;66210;53.282;9.864;2024-03-17T10:21:42;101850.94;;;6.78;75.73
77216;BME280;66210;53.282;9.864;2024-03-17T10:26:44;101829.59;;;6.75;75.90
77216;BME280;66210;53.282;9.864;2024-03-17T10:29:28;101837.63;;;6.91;76.07
77216;BME280;66210;53.282;9.864;2024-03-17T10:32:03;101835.41;;;7.06;75.79
77216;BME280;66210;53.282;9.864;2024-03-17T10:34:31;101840.63;;;7.19;75.52
77216;BME280;66210;53.282;9.864;2024-03-17T10:37:19;101832.00;;;7.27;74.44
77216;BME280;66210;53.282;9.864;2024-03-17T10:39:51;101824.94;;;7.45;71.78
77216;BME280;66210;53.282;9.864;2024-03-17T10:42:27;101831.03;;;7.59;68.51
77216;BME280;66210;53.282;9.864;2024-03-17T10:45:06;101819.28;;;7.60;68.04
77216;BME280;66210;53.282;9.864;2024-03-17T10:47:34;101815.66;;;7.56;67.26
77216;BME280;66210;53.282;9.864;2024-03-17T10:50:00;101823.44;;;7.59;67.14
77216;BME280;66210;53.282;9.864;2024-03-17T10:52:33;101829.31;;;7.70;66.61
77216;BME280;66210;53.282;9.864;2024-03-17T10:55:02;101826.59;;;7.79;66.98
77216;BME280;66210;53.282;9.864;2024-03-17T11:00:08;101823.16;;;8.12;68.70
77216;BME280;66210;53.282;9.864;2024-03-17T11:02:35;101822.44;;;8.60;66.28
77216;BME280;66210;53.282;9.864;2024-03-17T11:05:10;101816.97;;;9.03;64.83
77216;BME280;66210;53.282;9.864;2024-03-17T11:07:39;101828.84;;;9.66;63.30
77216;BME280;66210;53.282;9.864;2024-03-17T11:10:21;101823.22;;;10.22;62.10
77216;BME280;66210;53.282;9.864;2024-03-17T11:12:50;101819.41;;;10.28;55.01
77216;BME280;66210;53.282;9.864;2024-03-17T11:20:35;101819.94;;;9.84;52.51
77216;BME280;66210;53.282;9.864;2024-03-17T11:23:01;101823.47;;;9.61;54.21
77216;BME280;66210;53.282;9.864;2024-03-17T11:44:16;101790.44;;;9.23;59.10
77216;BME280;66210;53.282;9.864;2024-03-17T11:46:54;101789.09;;;9.28;59.72
77216;BME280;66210;53.282;9.864;2024-03-17T11:49:28;101782.41;;;9.28;59.00
77216;BME280;66210;53.282;9.864;2024-03-17T11:51:55;101785.31;;;9.34;59.84
77216;BME280;66210;53.282;9.864;2024-03-17T11:54:24;101784.88;;;9.40;60.16
77216;BME280;66210;53.282;9.864;2024-03-17T11:56:53;101782.41;;;9.28;57.35
77216;BME280;66210;53.282;9.864;2024-03-17T11:59:20;101771.94;;;9.24;59.25
77216;BME280;66210;53.282;9.864;2024-03-17T12:01:47;101778.56;;;9.22;59.37
77216;BME280;66210;53.282;9.864;2024-03-17T12:04:14;101784.81;;;9.27;60.78
77216;BME280;66210;53.282;9.864;2024-03-17T12:06:44;101786.56;;;9.28;60.75
77216;BME280;66210;53.282;9.864;2024-03-17T12:09:18;101783.28;;;9.29;60.42
77216;BME280;66210;53.282;9.864;2024-03-17T12:12:31;101777.22;;;9.27;59.89
77216;BME280;66210;53.282;9.864;2024-03-17T12:14:32;101769.72;;;9.28;58.66
77216;BME280;66210;53.282;9.864;2024-03-17T12:17:09;101770.41;;;9.14;56.22
77216;BME280;66210;53.282;9.864;2024-03-17T12:19:36;101770.91;;;8.97;55.53
77216;BME280;66210;53.282;9.864;2024-03-17T12:22:04;101770.16;;;8.98;57.67
77216;BME280;66210;53.282;9.864;2024-03-17T12:24:32;101760.69;;;8.95;57.98
77216;BME280;66210;53.282;9.864;2024-03-17T12:26:59;101763.53;;;9.00;58.81
77216;BME280;66210;53.282;9.864;2024-03-17T12:29:35;101770.63;;;9.17;58.02
77216;BME280;66210;53.282;9.864;2024-03-17T12:32:06;101761.69;;;9.22;57.50
77216;BME280;66210;53.282;9.864;2024-03-17T12:34:37;101756.91;;;9.52;58.41
77216;BME280;66210;53.282;9.864;2024-03-17T12:37:03;101754.25;;;9.89;57.75
77216;BME280;66210;53.282;9.864;2024-03-17T12:39:31;101755.78;;;10.38;57.35
77216;BME280;66210;53.282;9.864;2024-03-17T12:42:06;101752.41;;;10.66;54.78
77216;BME280;66210;53.282;9.864;2024-03-17T12:44:35;101733.66;;;10.51;53.11
77216;BME280;66210;53.282;9.864;2024-03-17T12:47:04;101742.84;;;10.49;54.55
77216;BME280;66210;53.282;9.864;2024-03-17T12:49:32;101750.00;;;10.41;53.87
77216;BME280;66210;53.282;9.864;2024-03-17T12:51:58;101745.03;;;10.29;54.51
77216;BME280;66210;53.282;9.864;2024-03-17T12:54:26;101745.56;;;10.12;53.62
77216;BME280;66210;53.282;9.864;2024-03-17T12:57:06;101730.34;;;9.98;56.18
77216;BME280;66210;53.282;9.864;2024-03-17T12:59:50;101736.38;;;9.87;55.05
77216;BME280;66210;53.282;9.864;2024-03-17T13:02:41;101717.03;;;9.76;56.56
77216;BME280;66210;53.282;9.864;2024-03-17T13:05:14;101728.38;;;9.81;56.58
77216;BME280;66210;53.282;9.864;2024-03-17T13:07:41;101709.13;;;9.71;56.18
77216;BME280;66210;53.282;9.864;2024-03-17T13:10:07;101710.00;;;9.72;57.33
77216;BME280;66210;53.282;9.864;2024-03-17T13:12:34;101712.69;;;9.62;55.89
77216;BME280;66210;53.282;9.864;2024-03-17T13:15:00;101702.06;;;9.54;56.58
77216;BME280;66210;53.282;9.864;2024-03-17T13:17:27;101709.28;;;9.48;55.47
77216;BME280;66210;53.282;9.864;2024-03-17T13:19:54;101705.00;;;9.47;57.11
77216;BME280;66210;53.282;9.864;2024-03-17T13:22:20;101712.22;;;9.54;57.55